createdAt,value
2018-08-07T00:02:05.608Z,54.06
2018-08-07T00:04:40.761Z,55.61
2018-08-07T00:07:15.091Z,55.55
2018-08-07T00:09:49.529Z,54.40
2018-08-07T00:12:24.181Z,55.43
2018-08-07T00:14:59.060Z,56.60
2018-08-07T00:17:33.836Z,57.23
2018-08-07T00:20:09.997Z,57.76
2018-08-07T00:22:44.848Z,56.26
2018-08-07T00:25:19.185Z,56.34
2018-08-07T00:27:53.656Z,57.25
2018-08-07T00:30:27.948Z,58.11
2018-08-07T00:33:02.618Z,58.67
2018-08-07T00:35:37.164Z,59.46
2018-08-07T00:38:12.000Z,59.31
2018-08-07T00:40:46.646Z,59.76
2018-08-07T00:43:21.412Z,59.51
2018-08-07T00:45:56.105Z,59.37
2018-08-07T00:48:30.643Z,60.00
2018-08-07T00:51:05.343Z,57.96
2018-08-07T00:53:40.166Z,58.92
2018-08-07T00:56:14.539Z,60.35
2018-08-07T00:58:49.011Z,60.65
2018-08-07T01:01:23.780Z,60.49
2018-08-07T01:03:58.901Z,60.79
2018-08-07T01:06:33.957Z,60.81
2018-08-07T01:09:09.528Z,59.85
2018-08-07T01:11:44.025Z,59.43
2018-08-07T01:14:18.594Z,60.80
2018-08-07T01:16:54.114Z,59.83
2018-08-07T01:19:28.475Z,60.97
2018-08-07T01:22:02.924Z,61.55
2018-08-07T01:24:37.364Z,60.47
2018-08-07T01:27:11.804Z,60.60
2018-08-07T01:29:46.252Z,59.88
2018-08-07T01:32:21.161Z,60.30
2018-08-07T01:34:55.992Z,60.16
2018-08-07T01:37:30.856Z,59.12
2018-08-07T01:40:06.572Z,59.58
2018-08-07T01:42:41.903Z,60.45
2018-08-07T01:45:16.600Z,59.94
2018-08-07T01:47:51.480Z,60.11
2018-08-07T01:50:26.613Z,60.97
2018-08-07T01:53:01.169Z,61.09
2018-08-07T01:55:36.095Z,61.10
2018-08-07T01:58:11.417Z,59.59
2018-08-07T02:00:45.696Z,59.21
2018-08-07T02:03:20.968Z,60.14
2018-08-07T02:05:55.405Z,60.40
2018-08-07T02:08:30.060Z,61.88
2018-08-07T02:11:04.784Z,59.61
2018-08-07T02:13:39.419Z,59.91
2018-08-07T02:16:13.844Z,60.69
2018-08-07T02:18:48.241Z,60.42
2018-08-07T02:21:22.756Z,60.85
2018-08-07T02:23:57.940Z,60.70
2018-08-07T02:26:32.244Z,61.32
2018-08-07T02:29:07.365Z,61.34
2018-08-07T02:31:42.040Z,61.12
2018-08-07T02:34:16.468Z,61.11
2018-08-07T02:36:51.509Z,61.61
2018-08-07T02:39:26.075Z,61.81
2018-08-07T02:42:01.195Z,62.30
2018-08-07T02:44:35.736Z,62.09
2018-08-07T02:47:10.846Z,63.01
2018-08-07T02:49:45.812Z,61.43
2018-08-07T02:52:21.026Z,62.27
2018-08-07T02:54:55.692Z,61.02
2018-08-07T02:57:30.632Z,60.91
2018-08-07T03:00:06.720Z,61.94
2018-08-07T03:02:41.447Z,61.10
2018-08-07T03:05:16.542Z,60.11
2018-08-07T03:07:51.110Z,61.06
2018-08-07T03:10:25.497Z,61.13
2018-08-07T03:13:00.309Z,60.78
2018-08-07T03:15:34.776Z,61.49
2018-08-07T03:18:09.901Z,59.42
2018-08-07T03:20:44.315Z,59.26
2018-08-07T03:23:18.986Z,61.19
2018-08-07T03:25:53.428Z,60.24
2018-08-07T03:28:27.696Z,58.90
2018-08-07T03:31:02.768Z,59.04
2018-08-07T03:33:37.113Z,59.49
2018-08-07T03:36:11.557Z,58.28
2018-08-07T03:38:46.159Z,57.47
2018-08-07T03:41:21.408Z,57.36
2018-08-07T03:43:56.280Z,57.39
2018-08-07T03:46:30.649Z,57.75
2018-08-07T03:49:05.192Z,58.16
2018-08-07T03:51:39.992Z,58.78
2018-08-07T03:54:14.460Z,57.54
2018-08-07T03:56:48.924Z,58.24
2018-08-07T03:59:24.568Z,58.22
2018-08-07T04:01:59.463Z,58.80
2018-08-07T04:04:33.948Z,57.31
2018-08-07T04:07:08.733Z,56.35
2018-08-07T04:09:43.611Z,56.99
2018-08-07T04:12:18.146Z,56.17
2018-08-07T04:14:53.160Z,58.45
2018-08-07T04:17:28.120Z,59.73
2018-08-07T04:20:02.653Z,59.28
2018-08-07T04:22:37.309Z,59.04
2018-08-07T04:25:11.767Z,58.01
2018-08-07T04:27:46.185Z,59.78
2018-08-07T04:30:21.158Z,60.46
2018-08-07T04:32:55.820Z,59.59
2018-08-07T04:35:30.688Z,59.70
2018-08-07T04:38:05.528Z,58.62
2018-08-07T04:40:40.233Z,58.89
2018-08-07T04:43:15.132Z,58.73
2018-08-07T04:45:49.780Z,58.89
2018-08-07T04:48:24.762Z,59.21
2018-08-07T04:50:59.421Z,57.92
2018-08-07T04:53:34.512Z,57.31
2018-08-07T04:56:09.248Z,57.60
2018-08-07T04:58:44.016Z,57.64
2018-08-07T05:01:18.702Z,58.07
2018-08-07T05:03:53.656Z,58.08
2018-08-07T05:06:28.291Z,56.56
2018-08-07T05:09:03.104Z,55.93
2018-08-07T05:11:38.049Z,56.47
2018-08-07T05:14:12.777Z,56.96
2018-08-07T05:16:47.376Z,56.47
2018-08-07T05:19:21.818Z,56.28
2018-08-07T05:21:56.540Z,58.00
2018-08-07T05:24:31.036Z,57.97
2018-08-07T05:27:05.784Z,58.08
2018-08-07T05:29:40.345Z,56.24
2018-08-07T05:32:15.368Z,56.61
2018-08-07T05:34:49.829Z,57.55
2018-08-07T05:37:24.269Z,57.17
2018-08-07T05:39:59.062Z,58.43
2018-08-07T05:42:33.841Z,54.47
2018-08-07T05:45:09.965Z,55.81
2018-08-07T05:47:44.599Z,55.67
2018-08-07T05:50:19.253Z,54.91
2018-08-07T05:52:54.464Z,55.93
2018-08-07T05:55:30.225Z,56.09
2018-08-07T05:58:04.691Z,55.55
2018-08-07T06:00:39.291Z,54.91
2018-08-07T06:03:13.752Z,56.66
2018-08-07T06:05:48.421Z,55.46
2018-08-07T06:08:22.767Z,55.49
2018-08-07T06:10:57.429Z,56.08
2018-08-07T06:13:32.036Z,55.34
2018-08-07T06:16:06.877Z,52.90
2018-08-07T06:18:41.980Z,52.78
2018-08-07T06:21:16.308Z,51.29
2018-08-07T06:23:51.036Z,50.44
2018-08-07T06:26:25.896Z,50.79
2018-08-07T06:29:00.263Z,51.67
2018-08-07T06:31:35.486Z,49.71
2018-08-07T06:34:10.427Z,51.08
2018-08-07T06:36:45.735Z,51.49
2018-08-07T06:39:20.195Z,51.72
2018-08-07T06:41:54.945Z,49.60
2018-08-07T06:44:29.372Z,51.03
2018-08-07T06:47:04.065Z,51.43
2018-08-07T06:49:39.289Z,49.56
2018-08-07T06:52:14.066Z,48.86
2018-08-07T06:54:48.968Z,49.63
2018-08-07T06:57:23.345Z,52.07
2018-08-07T06:59:57.788Z,49.19
2018-08-07T07:02:32.642Z,49.63
2018-08-07T07:05:07.400Z,48.81
2018-08-07T07:07:43.224Z,47.17
2018-08-07T07:10:19.105Z,47.71
2018-08-07T07:12:53.924Z,48.34
2018-08-07T07:15:28.476Z,47.71
2018-08-07T07:18:03.207Z,45.88
2018-08-07T07:20:37.664Z,44.01
2018-08-07T07:23:12.272Z,44.75
2018-08-07T07:25:46.744Z,46.77
2018-08-07T07:28:21.090Z,45.19
2018-08-07T07:30:55.775Z,43.07
2018-08-07T07:33:30.836Z,45.14
2018-08-07T07:36:05.631Z,44.57
2018-08-07T07:38:40.884Z,44.74
2018-08-07T07:41:15.591Z,43.38
2018-08-07T07:43:50.396Z,43.13
2018-08-07T07:46:25.499Z,43.98
2018-08-07T07:49:00.211Z,41.88
2018-08-07T07:51:34.609Z,44.95
2018-08-07T07:54:09.484Z,40.45
2018-08-07T07:56:44.803Z,42.17
2018-08-07T07:59:19.631Z,41.36
2018-08-07T08:01:54.736Z,42.41
2018-08-07T08:04:29.089Z,41.95
2018-08-07T08:07:03.737Z,40.56
2018-08-07T08:09:38.590Z,42.01
2018-08-07T08:12:13.948Z,41.96
2018-08-07T08:14:48.649Z,42.17
2018-08-07T08:17:23.104Z,45.12
2018-08-07T08:19:57.524Z,40.30
2018-08-07T08:22:31.949Z,41.54
2018-08-07T08:25:07.653Z,43.88
2018-08-07T08:27:42.314Z,38.31
2018-08-07T08:30:17.683Z,39.85
2018-08-07T08:32:51.964Z,42.80
2018-08-07T08:35:26.390Z,40.20
2018-08-07T08:38:01.189Z,40.26
2018-08-07T08:40:35.668Z,42.27
2018-08-07T08:43:10.476Z,42.41
2018-08-07T08:45:45.021Z,38.65
2018-08-07T08:48:19.580Z,44.30
2018-08-07T08:50:54.559Z,39.34
2018-08-07T08:53:29.244Z,41.66
2018-08-07T08:56:03.558Z,41.78
2018-08-07T08:58:38.348Z,39.00
2018-08-07T09:01:12.735Z,35.88
2018-08-07T09:03:47.420Z,36.15
2018-08-07T09:06:21.899Z,38.89
2018-08-07T09:08:56.444Z,34.53
2018-08-07T09:11:30.804Z,38.18
2018-08-07T09:14:05.424Z,36.63
2018-08-07T09:16:40.317Z,38.00
2018-08-07T09:19:14.649Z,34.28
2018-08-07T09:21:49.333Z,34.74
2018-08-07T09:24:23.768Z,37.37
2018-08-07T09:26:58.553Z,35.41
2018-08-07T09:29:33.864Z,45.37
2018-08-07T09:32:08.732Z,37.23
2018-08-07T09:34:43.318Z,42.28
2018-08-07T09:37:17.795Z,41.19
2018-08-07T09:39:52.241Z,39.62
2018-08-07T09:42:26.975Z,31.58
2018-08-07T09:45:01.392Z,31.41
2018-08-07T09:47:36.047Z,35.29
2018-08-07T09:50:11.434Z,34.77
2018-08-07T09:52:47.089Z,30.93
2018-08-07T09:55:21.865Z,31.43
2018-08-07T09:57:56.603Z,36.58
2018-08-07T10:00:36.758Z,30.34
2018-08-07T10:03:15.583Z,29.98
2018-08-07T10:05:50.192Z,34.60
2018-08-07T10:08:24.700Z,31.89
2018-08-07T10:10:59.172Z,30.06
2018-08-07T10:13:33.983Z,38.85
2018-08-07T10:16:08.344Z,35.62
2018-08-07T10:18:43.101Z,34.58
2018-08-07T10:21:17.480Z,36.55
2018-08-07T10:23:51.915Z,35.58
2018-08-07T10:26:27.374Z,36.19
2018-08-07T10:29:02.188Z,32.84
2018-08-07T10:31:36.636Z,32.11
2018-08-07T10:34:11.308Z,32.61
2018-08-07T10:36:49.753Z,36.41
2018-08-07T10:39:26.788Z,30.76
2018-08-07T10:42:07.314Z,28.95
2018-08-07T10:44:42.266Z,30.32
2018-08-07T10:47:16.951Z,29.12
2018-08-07T10:49:51.252Z,29.64
2018-08-07T10:52:26.025Z,27.86
2018-08-07T10:55:00.839Z,29.65
2018-08-07T10:57:35.389Z,28.32
2018-08-07T11:00:13.636Z,30.11
2018-08-07T11:02:49.154Z,32.37
2018-08-07T11:05:24.496Z,29.93
2018-08-07T11:07:59.095Z,34.37
2018-08-07T11:10:33.600Z,37.11
2018-08-07T11:13:08.101Z,32.59
2018-08-07T11:15:42.538Z,33.19
2018-08-07T11:18:17.769Z,32.89
2018-08-07T11:20:52.032Z,32.58
2018-08-07T11:23:26.796Z,29.50
2018-08-07T11:26:01.482Z,33.13
2018-08-07T11:28:36.411Z,29.93
2018-08-07T11:31:10.753Z,32.44
2018-08-07T11:33:45.789Z,32.04
2018-08-07T11:36:21.140Z,30.98
2018-08-07T11:38:55.574Z,30.46
2018-08-07T11:41:30.888Z,30.68
2018-08-07T11:44:05.750Z,30.76
2018-08-07T11:46:40.099Z,31.83
2018-08-07T11:49:14.580Z,30.99
2018-08-07T11:51:49.293Z,31.08
2018-08-07T11:54:23.792Z,27.99
2018-08-07T11:56:59.281Z,28.36
2018-08-07T11:59:33.996Z,28.29
2018-08-07T12:02:08.495Z,27.70
2018-08-07T12:04:43.161Z,30.54
2018-08-07T12:07:17.596Z,28.28
2018-08-07T12:09:51.985Z,31.73
2018-08-07T12:12:26.699Z,27.41
2018-08-07T12:15:01.049Z,30.30
2018-08-07T12:17:36.053Z,29.00
2018-08-07T12:20:10.741Z,26.66
2018-08-07T12:22:45.090Z,27.47
2018-08-07T12:25:20.345Z,30.22
2018-08-07T12:27:54.827Z,28.60
2018-08-07T12:30:30.809Z,26.58
2018-08-07T12:33:05.548Z,27.00
2018-08-07T12:35:39.988Z,28.53
2018-08-07T12:38:14.507Z,29.19
2018-08-07T12:40:49.401Z,28.61
2018-08-07T12:43:24.204Z,29.00
2018-08-07T12:45:59.034Z,27.11
2018-08-07T12:48:33.760Z,28.64
2018-08-07T12:51:09.021Z,28.09
2018-08-07T12:53:43.412Z,30.79
2018-08-07T12:56:18.010Z,30.78
2018-08-07T12:58:52.805Z,31.11
2018-08-07T13:01:27.251Z,30.83
2018-08-07T13:04:01.938Z,31.50
2018-08-07T13:06:36.364Z,32.96
2018-08-07T13:09:13.174Z,31.51
2018-08-07T13:11:48.007Z,33.34
2018-08-07T13:14:22.884Z,34.53
2018-08-07T13:16:57.149Z,39.15
2018-08-07T13:19:32.041Z,47.59
2018-08-07T13:22:06.476Z,51.84
2018-08-07T13:24:40.770Z,51.31
2018-08-07T13:27:15.180Z,55.61
2018-08-07T13:29:50.062Z,54.61
2018-08-07T13:32:24.468Z,54.06
2018-08-07T13:34:59.716Z,57.56
2018-08-07T13:37:34.296Z,58.52
2018-08-07T13:40:11.660Z,60.89
2018-08-07T13:42:46.069Z,64.57
2018-08-07T13:45:22.479Z,67.17
2018-08-07T13:47:56.836Z,67.94
2018-08-07T13:50:31.464Z,67.97
2018-08-07T13:53:06.735Z,68.74
2018-08-07T13:55:41.155Z,69.17
2018-08-07T13:58:15.836Z,66.73
2018-08-07T14:00:50.805Z,66.11
2018-08-07T14:03:25.574Z,66.06
2018-08-07T14:06:00.152Z,68.82
2018-08-07T14:08:35.060Z,68.23
2018-08-07T14:11:09.380Z,69.05
2018-08-07T14:13:44.571Z,64.64
2018-08-07T14:16:19.972Z,64.34
2018-08-07T14:18:54.447Z,62.58
2018-08-07T14:21:28.820Z,63.30
2018-08-07T14:24:03.169Z,58.50
2018-08-07T14:26:38.407Z,65.41
2018-08-07T14:29:13.140Z,64.51
2018-08-07T14:31:48.171Z,66.53
2018-08-07T14:34:22.492Z,67.48
2018-08-07T14:36:57.065Z,67.09
2018-08-07T14:39:31.823Z,65.50
2018-08-07T14:42:06.357Z,69.03
2018-08-07T14:44:41.088Z,69.51
2018-08-07T14:47:15.508Z,70.04
2018-08-07T14:49:50.557Z,71.05
2018-08-07T14:52:25.688Z,69.82
2018-08-07T14:55:00.028Z,65.53
2018-08-07T14:57:34.370Z,64.85
2018-08-07T15:00:15.656Z,69.48
2018-08-07T15:02:50.958Z,70.22
2018-08-07T15:05:25.399Z,69.70
2018-08-07T15:08:00.145Z,66.54
2018-08-07T15:10:34.945Z,61.14
2018-08-07T15:13:10.067Z,62.76
2018-08-07T15:15:44.524Z,57.66
2018-08-07T15:18:19.006Z,62.03
2018-08-07T15:20:53.550Z,61.05
2018-08-07T15:23:28.436Z,62.89
2018-08-07T15:26:03.032Z,63.91
2018-08-07T15:28:37.841Z,63.48
2018-08-07T15:31:12.260Z,63.96
2018-08-07T15:33:46.911Z,63.95
2018-08-07T15:36:21.309Z,64.27
2018-08-07T15:38:56.157Z,65.67
2018-08-07T15:41:30.621Z,65.28
2018-08-07T15:44:05.378Z,66.79
2018-08-07T15:46:40.141Z,69.17
2018-08-07T15:49:15.316Z,69.23
2018-08-07T15:51:50.017Z,69.32
2018-08-07T15:54:24.916Z,67.92
2018-08-07T15:56:59.617Z,68.09
2018-08-07T15:59:34.177Z,68.96
2018-08-07T16:02:08.491Z,68.89
2018-08-07T16:04:42.969Z,68.21
2018-08-07T16:07:18.361Z,66.88
2018-08-07T16:09:53.197Z,68.14
2018-08-07T16:12:28.154Z,70.42
2018-08-07T16:15:02.949Z,71.16
2018-08-07T16:17:37.406Z,70.17
2018-08-07T16:20:11.853Z,70.83
2018-08-07T16:22:46.186Z,70.53
2018-08-07T16:25:21.349Z,70.77
2018-08-07T16:27:56.380Z,70.35
2018-08-07T16:30:31.081Z,71.63
2018-08-07T16:33:05.564Z,69.92
2018-08-07T16:35:40.298Z,69.58
2018-08-07T16:38:14.686Z,71.58
2018-08-07T16:40:49.456Z,69.15
2018-08-07T16:43:24.098Z,71.27
2018-08-07T16:45:59.385Z,69.34
2018-08-07T16:48:34.208Z,67.78
2018-08-07T16:51:08.526Z,64.74
2018-08-07T16:53:43.006Z,65.58
2018-08-07T16:56:17.760Z,64.54
2018-08-07T16:58:52.704Z,67.21
2018-08-07T17:01:27.143Z,65.57
2018-08-07T17:04:02.751Z,60.78
2018-08-07T17:06:37.254Z,62.52
2018-08-07T17:09:13.021Z,65.78
2018-08-07T17:11:47.292Z,66.61
2018-08-07T17:14:21.836Z,66.19
2018-08-07T17:16:56.587Z,68.77
2018-08-07T17:19:30.992Z,65.03
2018-08-07T17:22:06.410Z,62.65
2018-08-07T17:24:41.362Z,63.94
2018-08-07T17:27:15.777Z,62.02
2018-08-07T17:29:50.760Z,62.47
2018-08-07T17:32:25.208Z,63.10
2018-08-07T17:34:59.636Z,64.18
2018-08-07T17:37:34.252Z,62.29
2018-08-07T17:40:10.077Z,64.96
2018-08-07T17:42:44.467Z,66.28
2018-08-07T17:45:18.912Z,67.97
2018-08-07T17:47:53.727Z,65.95
2018-08-07T17:50:28.119Z,64.12
2018-08-07T17:53:03.153Z,67.85
2018-08-07T17:55:37.840Z,69.11
2018-08-07T17:58:12.371Z,68.28
2018-08-07T18:00:47.152Z,67.00
2018-08-07T18:03:21.708Z,69.63
2018-08-07T18:05:56.732Z,69.24
2018-08-07T18:08:31.549Z,70.20
2018-08-07T18:11:06.264Z,70.07
2018-08-07T18:13:40.814Z,67.58
2018-08-07T18:16:15.284Z,70.09
2018-08-07T18:18:49.720Z,71.54
2018-08-07T18:21:24.697Z,71.16
2018-08-07T18:23:59.428Z,71.61
2018-08-07T18:26:34.101Z,73.28
2018-08-07T18:29:08.768Z,72.21
2018-08-07T18:31:43.284Z,71.99
2018-08-07T18:34:18.261Z,72.48
2018-08-07T18:36:53.096Z,72.75
2018-08-07T18:39:27.848Z,72.06
2018-08-07T18:42:02.339Z,70.84
2018-08-07T18:44:37.045Z,72.14
2018-08-07T18:47:11.552Z,72.92
2018-08-07T18:49:46.573Z,72.78
2018-08-07T18:52:21.057Z,73.81
2018-08-07T18:54:56.177Z,73.78
2018-08-07T18:57:31.020Z,73.40
2018-08-07T19:00:08.220Z,72.91
2018-08-07T19:02:42.855Z,71.02
2018-08-07T19:05:18.401Z,71.22
2018-08-07T19:07:52.809Z,71.69
2018-08-07T19:10:27.449Z,72.53
2018-08-07T19:13:02.043Z,73.11
2018-08-07T19:15:36.441Z,73.44
2018-08-07T19:18:11.484Z,74.34
2018-08-07T19:20:46.103Z,74.49
2018-08-07T19:23:20.564Z,74.06
2018-08-07T19:25:55.001Z,74.58
2018-08-07T19:28:30.131Z,73.88
2018-08-07T19:31:04.680Z,73.51
2018-08-07T19:33:39.163Z,74.11
2018-08-07T19:36:14.856Z,74.13
2018-08-07T19:38:50.187Z,74.51
2018-08-07T19:41:24.730Z,73.86
2018-08-07T19:43:59.236Z,73.69
2018-08-07T19:46:34.944Z,74.28
2018-08-07T19:49:09.931Z,74.27
2018-08-07T19:51:45.168Z,74.73
2018-08-07T19:54:20.197Z,74.62
2018-08-07T19:56:54.641Z,75.57
2018-08-07T19:59:29.121Z,75.39
2018-08-07T20:02:03.921Z,72.70
2018-08-07T20:04:38.769Z,75.43
2018-08-07T20:07:13.534Z,75.37
2018-08-07T20:09:48.167Z,74.90
2018-08-07T20:12:23.170Z,75.50
2018-08-07T20:14:57.793Z,74.76
2018-08-07T20:17:32.283Z,73.34
2018-08-07T20:20:08.495Z,74.50
2018-08-07T20:22:42.848Z,74.60
2018-08-07T20:25:17.600Z,75.25
2018-08-07T20:27:51.990Z,75.91
2018-08-07T20:30:26.482Z,75.36
2018-08-07T20:33:01.378Z,75.24
2018-08-07T20:35:35.744Z,75.43
2018-08-07T20:38:10.539Z,76.09
2018-08-07T20:40:44.880Z,75.91
2018-08-07T20:43:19.667Z,75.90
2018-08-07T20:45:54.468Z,76.00
2018-08-07T20:48:29.008Z,76.01
2018-08-07T20:51:03.883Z,75.71
2018-08-07T20:53:38.972Z,75.74
2018-08-07T20:56:14.408Z,76.40
2018-08-07T20:58:49.648Z,75.43
2018-08-07T21:01:24.519Z,74.95
2018-08-07T21:03:59.448Z,76.18
2018-08-07T21:06:34.288Z,75.94
2018-08-07T21:09:09.938Z,75.65
2018-08-07T21:11:45.398Z,76.66
2018-08-07T21:14:20.048Z,75.87
2018-08-07T21:16:54.722Z,76.26
2018-08-07T21:19:29.436Z,75.96
2018-08-07T21:22:04.416Z,76.81
2018-08-07T21:24:39.205Z,76.86
2018-08-07T21:27:13.710Z,76.94
2018-08-07T21:29:48.072Z,76.54
2018-08-07T21:32:22.693Z,76.45
2018-08-07T21:34:57.507Z,76.53
2018-08-07T21:37:32.433Z,76.89
2018-08-07T21:40:08.959Z,77.16
2018-08-07T21:42:43.936Z,76.39
2018-08-07T21:45:18.652Z,76.88
2018-08-07T21:47:53.801Z,77.32
2018-08-07T21:50:28.767Z,77.08
2018-08-07T21:53:03.121Z,78.06
2018-08-07T21:55:37.916Z,78.32
2018-08-07T21:58:12.947Z,77.36
2018-08-07T22:00:48.780Z,77.69
2018-08-07T22:03:23.456Z,77.50
2018-08-07T22:05:58.576Z,77.56
2018-08-07T22:08:33.279Z,78.03
2018-08-07T22:11:08.241Z,78.66
2018-08-07T22:13:43.084Z,78.47
2018-08-07T22:16:17.856Z,77.86
2018-08-07T22:18:52.159Z,78.29
2018-08-07T22:21:26.699Z,78.29
2018-08-07T22:24:01.463Z,79.06
2018-08-07T22:26:35.859Z,79.09
2018-08-07T22:29:10.616Z,79.26
2018-08-07T22:31:45.129Z,78.42
2018-08-07T22:34:19.934Z,78.64
2018-08-07T22:36:54.388Z,79.35
2018-08-07T22:39:29.071Z,78.78
2018-08-07T22:42:03.595Z,78.64
2018-08-07T22:44:37.941Z,79.11
2018-08-07T22:47:12.394Z,79.02
2018-08-07T22:49:47.760Z,78.65
2018-08-07T22:52:22.255Z,78.95
2018-08-07T22:54:56.808Z,79.47
2018-08-07T22:57:31.505Z,78.10
2018-08-07T23:00:14.937Z,78.33
2018-08-07T23:02:49.604Z,79.41
2018-08-07T23:05:24.692Z,78.76
2018-08-07T23:07:59.351Z,79.23
2018-08-07T23:10:34.160Z,79.30
2018-08-07T23:13:08.905Z,79.42
2018-08-07T23:15:44.132Z,79.70
2018-08-07T23:18:18.642Z,79.97
2018-08-07T23:20:53.125Z,79.92
2018-08-07T23:23:28.312Z,80.10
2018-08-07T23:26:03.116Z,80.43
2018-08-07T23:28:38.168Z,80.24
2018-08-07T23:31:12.829Z,80.24
2018-08-07T23:33:47.340Z,80.73
2018-08-07T23:36:22.424Z,80.53
2018-08-07T23:38:56.971Z,80.47
2018-08-07T23:41:31.796Z,81.14
2018-08-07T23:44:06.713Z,80.21
2018-08-07T23:46:41.387Z,80.53
2018-08-07T23:49:15.977Z,80.72
2018-08-07T23:51:50.532Z,80.36
2018-08-07T23:54:26.020Z,80.99
2018-08-07T23:57:01.133Z,81.34
2018-08-07T23:59:35.629Z,80.72
